createdAt,value
2018-02-21T00:00:12.547Z,1.80
2018-02-21T00:00:46.239Z,1.90
2018-02-21T00:01:19.972Z,1.90
2018-02-21T00:01:54.563Z,1.90
2018-02-21T00:02:28.232Z,1.90
2018-02-21T00:03:01.902Z,1.90
2018-02-21T00:03:36.350Z,1.90
2018-02-21T00:04:10.022Z,1.90
2018-02-21T00:04:43.711Z,1.90
2018-02-21T00:05:17.404Z,1.90
2018-02-21T00:05:51.092Z,1.90
2018-02-21T00:06:24.776Z,1.90
2018-02-21T00:06:59.230Z,1.90
2018-02-21T00:07:32.919Z,1.90
2018-02-21T00:08:06.606Z,1.90
2018-02-21T00:08:40.311Z,1.90
2018-02-21T00:09:13.978Z,1.90
2018-02-21T00:09:47.639Z,1.90
2018-02-21T00:10:21.316Z,1.90
2018-02-21T00:10:55.761Z,1.90
2018-02-21T00:11:29.652Z,1.90
2018-02-21T00:12:03.327Z,1.90
2018-02-21T00:12:36.998Z,1.90
2018-02-21T00:13:11.439Z,1.90
2018-02-21T00:13:45.130Z,1.90
2018-02-21T00:14:18.790Z,1.90
2018-02-21T00:14:52.484Z,1.90
2018-02-21T00:15:26.161Z,1.90
2018-02-21T00:16:00.628Z,1.90
2018-02-21T00:16:34.331Z,1.90
2018-02-21T00:17:07.990Z,1.90
2018-02-21T00:17:41.675Z,1.90
2018-02-21T00:18:15.339Z,1.90
2018-02-21T00:18:49.047Z,1.90
2018-02-21T00:19:22.719Z,1.90
2018-02-21T00:19:56.403Z,1.90
2018-02-21T00:20:30.839Z,1.90
2018-02-21T00:21:04.512Z,1.90
2018-02-21T00:21:38.219Z,1.90
2018-02-21T00:22:13.783Z,1.90
2018-02-21T00:22:46.815Z,1.90
2018-02-21T00:23:20.477Z,1.90
2018-02-21T00:23:54.907Z,1.90
2018-02-21T00:24:28.574Z,1.90
2018-02-21T00:25:03.020Z,1.90
2018-02-21T00:25:36.683Z,1.90
2018-02-21T00:26:11.122Z,1.90
2018-02-21T00:26:44.823Z,1.90
2018-02-21T00:27:18.502Z,1.90
2018-02-21T00:27:52.174Z,1.90
2018-02-21T00:28:25.842Z,1.90
2018-02-21T00:29:00.298Z,1.90
2018-02-21T00:29:33.992Z,1.90
2018-02-21T00:30:07.664Z,1.90
2018-02-21T00:30:41.336Z,1.90
2018-02-21T00:31:15.002Z,1.90
2018-02-21T00:31:49.712Z,1.90
2018-02-21T00:32:24.142Z,1.90
2018-02-21T00:32:57.861Z,1.90
2018-02-21T00:33:31.527Z,1.90
2018-02-21T00:34:05.194Z,1.90
2018-02-21T00:34:39.644Z,1.90
2018-02-21T00:35:13.331Z,1.90
2018-02-21T00:35:47.000Z,1.90
2018-02-21T00:36:20.678Z,1.90
2018-02-21T00:36:55.155Z,1.90
2018-02-21T00:37:28.839Z,1.90
2018-02-21T00:38:02.519Z,1.90
2018-02-21T00:38:36.182Z,1.90
2018-02-21T00:39:09.928Z,1.90
2018-02-21T00:39:43.731Z,1.90
2018-02-21T00:40:18.169Z,1.90
2018-02-21T00:40:51.830Z,1.90
2018-02-21T00:41:26.267Z,1.90
2018-02-21T00:41:59.955Z,1.90
2018-02-21T00:42:33.625Z,1.90
2018-02-21T00:43:07.296Z,1.90
2018-02-21T00:43:41.746Z,1.90
2018-02-21T00:44:15.426Z,1.90
2018-02-21T00:44:49.106Z,1.90
2018-02-21T00:45:23.548Z,1.90
2018-02-21T00:45:57.222Z,1.90
2018-02-21T00:46:30.893Z,1.90
2018-02-21T00:47:04.831Z,1.90
2018-02-21T00:47:38.495Z,1.90
2018-02-21T00:48:12.186Z,1.90
2018-02-21T00:48:45.854Z,1.90
2018-02-21T00:49:19.520Z,1.90
2018-02-21T00:49:53.174Z,1.90
2018-02-21T00:50:26.852Z,1.90
2018-02-21T00:51:00.546Z,1.90
2018-02-21T00:51:34.218Z,1.90
2018-02-21T00:52:07.915Z,1.90
2018-02-21T00:52:41.610Z,1.90
2018-02-21T00:53:15.307Z,1.90
2018-02-21T00:53:48.970Z,1.90
2018-02-21T00:54:22.648Z,1.90
2018-02-21T00:54:57.098Z,1.90
2018-02-21T00:55:30.796Z,1.90
2018-02-21T00:56:04.488Z,1.90
2018-02-21T00:56:38.173Z,1.90
2018-02-21T00:57:11.876Z,1.90
2018-02-21T00:57:45.550Z,1.90
2018-02-21T00:58:19.234Z,1.90
2018-02-21T00:58:52.900Z,1.90
2018-02-21T00:59:26.580Z,1.90
2018-02-21T01:00:00.252Z,1.90
2018-02-21T01:00:34.691Z,1.90
2018-02-21T01:01:08.358Z,1.90
2018-02-21T01:01:42.799Z,1.90
2018-02-21T01:02:16.511Z,1.90
2018-02-21T01:02:50.192Z,1.90
2018-02-21T01:03:23.869Z,1.90
2018-02-21T01:03:57.558Z,1.90
2018-02-21T01:04:31.229Z,1.90
2018-02-21T01:05:04.914Z,1.90
2018-02-21T01:05:38.580Z,1.90
2018-02-21T01:06:12.689Z,1.90
2018-02-21T01:06:47.133Z,1.90
2018-02-21T01:07:20.837Z,1.90
2018-02-21T01:07:54.516Z,1.90
2018-02-21T01:08:28.192Z,1.90
2018-02-21T01:09:02.048Z,1.90
2018-02-21T01:09:36.500Z,1.90
2018-02-21T01:10:10.190Z,1.90
2018-02-21T01:10:43.871Z,1.90
2018-02-21T01:11:17.546Z,1.90
2018-02-21T01:11:51.218Z,1.90
2018-02-21T01:12:25.692Z,1.90
2018-02-21T01:12:59.383Z,1.90
2018-02-21T01:13:33.060Z,1.90
2018-02-21T01:14:06.735Z,1.90
2018-02-21T01:14:40.419Z,1.90
2018-02-21T01:15:14.089Z,1.90
2018-02-21T01:15:48.539Z,1.90
2018-02-21T01:16:22.215Z,1.90
2018-02-21T01:16:55.884Z,1.90
2018-02-21T01:17:29.578Z,1.90
2018-02-21T01:18:03.251Z,1.90
2018-02-21T01:18:37.695Z,1.90
2018-02-21T01:19:11.368Z,1.80
2018-02-21T01:19:45.049Z,1.90
2018-02-21T01:20:18.734Z,1.90
2018-02-21T01:20:52.408Z,1.90
2018-02-21T01:21:26.860Z,1.90
2018-02-21T01:22:00.529Z,1.90
2018-02-21T01:22:34.218Z,1.90
2018-02-21T01:23:07.890Z,1.90
2018-02-21T01:23:42.342Z,1.90
2018-02-21T01:24:16.186Z,1.90
2018-02-21T01:24:50.639Z,1.90
2018-02-21T01:25:24.327Z,1.90
2018-02-21T01:25:57.998Z,1.90
2018-02-21T01:26:31.678Z,1.80
2018-02-21T01:27:05.354Z,1.90
2018-02-21T01:27:39.810Z,1.90
2018-02-21T01:28:13.499Z,1.90
2018-02-21T01:28:47.191Z,1.90
2018-02-21T01:29:20.885Z,1.90
2018-02-21T01:29:54.575Z,1.90
2018-02-21T01:30:28.269Z,1.90
2018-02-21T01:31:01.950Z,1.90
2018-02-21T01:31:35.628Z,1.90
2018-02-21T01:32:09.294Z,1.90
2018-02-21T01:32:42.997Z,1.90
2018-02-21T01:33:16.674Z,1.90
2018-02-21T01:33:50.338Z,1.90
2018-02-21T01:34:24.010Z,1.80
2018-02-21T01:34:57.679Z,1.90
2018-02-21T01:35:31.369Z,1.90
2018-02-21T01:36:05.057Z,1.90
2018-02-21T01:36:38.733Z,1.90
2018-02-21T01:37:12.412Z,1.90
2018-02-21T01:37:46.111Z,1.90
2018-02-21T01:38:19.802Z,1.90
2018-02-21T01:38:53.492Z,1.90
2018-02-21T01:39:27.163Z,1.90
2018-02-21T01:40:00.851Z,1.90
2018-02-21T01:40:35.296Z,1.90
2018-02-21T01:41:08.982Z,1.90
2018-02-21T01:41:42.664Z,1.90
2018-02-21T01:42:16.352Z,1.90
2018-02-21T01:42:50.073Z,1.90
2018-02-21T01:43:23.744Z,1.90
2018-02-21T01:43:57.414Z,1.90
2018-02-21T01:44:31.115Z,1.90
2018-02-21T01:45:04.464Z,1.90
2018-02-21T01:45:38.933Z,1.90
2018-02-21T01:46:12.620Z,1.90
2018-02-21T01:46:46.902Z,1.80
2018-02-21T01:47:20.581Z,1.90
2018-02-21T01:47:53.947Z,1.80
2018-02-21T01:48:27.630Z,1.90
2018-02-21T01:49:01.318Z,1.90
2018-02-21T01:49:35.781Z,1.80
2018-02-21T01:50:09.129Z,1.80
2018-02-21T01:50:52.198Z,1.90
2018-02-21T01:51:25.884Z,1.80
2018-02-21T01:52:01.092Z,1.80
2018-02-21T01:52:34.778Z,1.80
2018-02-21T01:53:08.475Z,1.80
2018-02-21T01:53:42.157Z,1.80
2018-02-21T01:54:15.848Z,1.80
2018-02-21T01:54:49.526Z,1.80
2018-02-21T01:55:23.203Z,1.80
2018-02-21T01:55:56.893Z,1.80
2018-02-21T01:56:30.564Z,1.80
2018-02-21T01:57:04.235Z,1.80
2018-02-21T01:57:38.682Z,1.80
2018-02-21T01:58:12.391Z,1.80
2018-02-21T01:58:46.082Z,1.80
2018-02-21T01:59:19.770Z,1.80
2018-02-21T01:59:53.447Z,1.80
2018-02-21T02:00:27.131Z,1.80
2018-02-21T02:01:00.471Z,1.80
2018-02-21T02:01:34.932Z,1.80
2018-02-21T02:02:08.606Z,1.80
2018-02-21T02:02:42.297Z,1.80
2018-02-21T02:03:15.998Z,1.80
2018-02-21T02:03:49.677Z,1.80
2018-02-21T02:04:23.342Z,1.80
2018-02-21T02:04:57.026Z,1.80
2018-02-21T02:05:31.472Z,1.80
2018-02-21T02:06:04.821Z,1.80
2018-02-21T02:06:38.512Z,1.80
2018-02-21T02:07:12.190Z,1.80
2018-02-21T02:07:46.645Z,1.80
2018-02-21T02:08:20.347Z,1.80
2018-02-21T02:08:54.033Z,1.80
2018-02-21T02:09:27.715Z,1.80
2018-02-21T02:10:01.396Z,1.80
2018-02-21T02:10:35.071Z,1.80
2018-02-21T02:11:08.746Z,1.80
2018-02-21T02:11:42.429Z,1.80
2018-02-21T02:12:16.874Z,1.80
2018-02-21T02:12:50.542Z,1.80
2018-02-21T02:13:24.240Z,1.90
2018-02-21T02:13:57.909Z,1.80
2018-02-21T02:14:32.364Z,1.80
2018-02-21T02:15:06.044Z,1.80
2018-02-21T02:15:39.526Z,1.90
2018-02-21T02:16:13.215Z,1.80
2018-02-21T02:16:46.910Z,1.80
2018-02-21T02:17:20.593Z,1.80
2018-02-21T02:17:54.270Z,1.90
2018-02-21T02:18:28.360Z,1.90
2018-02-21T02:19:02.051Z,1.90
2018-02-21T02:19:35.736Z,1.90
2018-02-21T02:20:09.426Z,1.80
2018-02-21T02:20:43.118Z,1.90
2018-02-21T02:21:16.798Z,1.90
2018-02-21T02:21:51.253Z,1.90
2018-02-21T02:22:24.927Z,1.80
2018-02-21T02:22:58.620Z,1.80
2018-02-21T02:23:32.329Z,1.90
2018-02-21T02:24:06.003Z,1.90
2018-02-21T02:24:39.684Z,1.80
2018-02-21T02:25:13.356Z,1.90
2018-02-21T02:25:47.030Z,1.90
2018-02-21T02:26:21.474Z,1.90
2018-02-21T02:26:55.146Z,1.90
2018-02-21T02:27:28.816Z,1.90
2018-02-21T02:28:03.262Z,1.90
2018-02-21T02:28:37.319Z,1.80
2018-02-21T02:29:11.767Z,1.90
2018-02-21T02:29:45.453Z,1.80
2018-02-21T02:30:19.127Z,1.80
2018-02-21T02:30:52.458Z,1.90
2018-02-21T02:31:26.151Z,1.90
2018-02-21T02:31:59.823Z,1.90
2018-02-21T02:32:33.499Z,1.90
2018-02-21T02:33:07.731Z,1.90
2018-02-21T02:33:41.454Z,1.90
2018-02-21T02:34:15.886Z,1.90
2018-02-21T02:34:49.550Z,1.80
2018-02-21T02:35:24.004Z,1.80
2018-02-21T02:35:57.683Z,1.80
2018-02-21T02:36:31.400Z,1.90
2018-02-21T02:37:05.098Z,1.90
2018-02-21T02:37:38.783Z,1.90
2018-02-21T02:38:23.586Z,1.80
2018-02-21T02:39:08.561Z,1.90
2018-02-21T02:40:02.089Z,1.80
2018-02-21T02:40:35.799Z,1.80
2018-02-21T02:41:09.490Z,1.80
2018-02-21T02:41:43.171Z,1.80
2018-02-21T02:42:16.863Z,1.80
2018-02-21T02:42:50.537Z,1.70
2018-02-21T02:43:24.214Z,1.70
2018-02-21T02:43:58.649Z,1.70
2018-02-21T02:44:32.337Z,1.70
2018-02-21T02:45:06.016Z,1.70
2018-02-21T02:45:40.473Z,1.60
2018-02-21T02:46:14.174Z,1.60
2018-02-21T02:46:47.855Z,1.60
2018-02-21T02:47:21.528Z,1.60
2018-02-21T02:47:55.222Z,1.60
2018-02-21T02:48:28.904Z,1.50
2018-02-21T02:49:02.233Z,1.50
2018-02-21T02:49:36.703Z,1.40
2018-02-21T02:50:10.385Z,1.40
2018-02-21T02:50:44.063Z,1.40
2018-02-21T02:51:17.744Z,1.40
2018-02-21T02:51:51.409Z,1.40
2018-02-21T02:52:25.860Z,1.30
2018-02-21T02:52:59.532Z,1.30
2018-02-21T02:53:33.206Z,1.30
2018-02-21T02:54:07.669Z,1.20
2018-02-21T02:54:41.381Z,1.20
2018-02-21T02:55:15.067Z,1.20
2018-02-21T02:55:48.769Z,1.20
2018-02-21T02:56:23.199Z,1.20
2018-02-21T02:56:56.878Z,1.10
2018-02-21T02:57:31.320Z,1.10
2018-02-21T02:58:04.983Z,1.10
2018-02-21T02:58:39.429Z,1.10
2018-02-21T02:59:13.126Z,1.00
2018-02-21T02:59:46.862Z,1.10
2018-02-21T03:00:21.310Z,1.00
2018-02-21T03:00:54.992Z,1.00
2018-02-21T03:01:28.692Z,1.00
2018-02-21T03:02:02.387Z,1.00
2018-02-21T03:02:36.050Z,1.00
2018-02-21T03:03:09.716Z,0.90
2018-02-21T03:03:44.176Z,0.90
2018-02-21T03:04:17.852Z,0.90
2018-02-21T03:04:51.551Z,0.90
2018-02-21T03:05:25.244Z,0.90
2018-02-21T03:05:58.967Z,0.90
2018-02-21T03:06:32.653Z,0.90
2018-02-21T03:07:05.999Z,0.80
2018-02-21T03:07:39.665Z,0.80
2018-02-21T03:08:13.334Z,0.80
2018-02-21T03:08:47.777Z,0.80
2018-02-21T03:09:21.448Z,0.80
2018-02-21T03:09:55.160Z,0.80
2018-02-21T03:10:28.828Z,0.70
2018-02-21T03:11:02.499Z,0.80
2018-02-21T03:11:36.980Z,0.70
2018-02-21T03:12:11.562Z,0.70
2018-02-21T03:12:45.253Z,0.70
2018-02-21T03:13:18.919Z,0.70
2018-02-21T03:13:52.584Z,0.70
2018-02-21T03:14:27.033Z,0.70
2018-02-21T03:15:01.092Z,0.70
2018-02-21T03:15:35.554Z,0.70
2018-02-21T03:16:09.228Z,0.70
2018-02-21T03:16:42.571Z,0.70
2018-02-21T03:17:17.019Z,0.70
2018-02-21T03:17:50.686Z,0.70
2018-02-21T03:18:25.135Z,0.70
2018-02-21T03:18:58.818Z,0.70
2018-02-21T03:19:32.515Z,0.60
2018-02-21T03:20:06.566Z,0.70
2018-02-21T03:20:41.016Z,0.60
2018-02-21T03:21:14.704Z,0.60
2018-02-21T03:21:48.364Z,0.60
2018-02-21T03:22:22.031Z,0.60
2018-02-21T03:22:56.462Z,0.60
2018-02-21T03:23:30.138Z,0.60
2018-02-21T03:24:04.586Z,0.60
2018-02-21T03:24:38.274Z,0.60
2018-02-21T03:25:11.970Z,0.60
2018-02-21T03:25:45.656Z,0.50
2018-02-21T03:26:19.329Z,0.50
2018-02-21T03:26:52.995Z,0.50
2018-02-21T03:27:27.443Z,0.50
2018-02-21T03:28:01.112Z,0.50
2018-02-21T03:28:34.778Z,0.50
2018-02-21T03:29:09.223Z,0.50
2018-02-21T03:29:42.897Z,0.50
2018-02-21T03:30:16.843Z,0.50
2018-02-21T03:30:50.531Z,0.50
2018-02-21T03:31:24.196Z,0.50
2018-02-21T03:31:57.887Z,0.50
2018-02-21T03:32:31.562Z,0.40
2018-02-21T03:33:05.110Z,0.50
2018-02-21T03:33:39.552Z,0.50
2018-02-21T03:34:13.213Z,0.40
2018-02-21T03:34:47.350Z,0.50
2018-02-21T03:35:21.063Z,0.40
2018-02-21T03:35:54.744Z,0.40
2018-02-21T03:36:28.435Z,0.40
2018-02-21T03:37:02.112Z,0.40
2018-02-21T03:37:35.822Z,0.40
2018-02-21T03:38:09.677Z,0.40
2018-02-21T03:38:43.343Z,0.40
2018-02-21T03:39:17.789Z,0.40
2018-02-21T03:39:51.455Z,0.40
2018-02-21T03:40:25.153Z,0.40
2018-02-21T03:40:58.843Z,0.40
2018-02-21T03:41:32.511Z,0.40
2018-02-21T03:42:06.948Z,0.40
2018-02-21T03:42:40.633Z,0.40
2018-02-21T03:43:14.319Z,0.40
2018-02-21T03:43:47.989Z,0.40
2018-02-21T03:44:22.435Z,0.40
2018-02-21T03:44:56.106Z,0.40
2018-02-21T03:45:29.828Z,0.40
2018-02-21T03:46:03.517Z,0.40
2018-02-21T03:46:37.207Z,0.40
2018-02-21T03:47:10.878Z,0.40
2018-02-21T03:47:44.558Z,0.40
2018-02-21T03:48:18.231Z,0.40
2018-02-21T03:48:52.670Z,0.40
2018-02-21T03:49:26.350Z,0.40
2018-02-21T03:50:00.036Z,0.30
2018-02-21T03:50:33.755Z,0.40
2018-02-21T03:51:07.422Z,0.30
2018-02-21T03:51:41.093Z,0.30
2018-02-21T03:52:14.763Z,0.40
2018-02-21T03:52:49.222Z,0.30
2018-02-21T03:53:22.902Z,0.30
2018-02-21T03:53:56.590Z,0.30
2018-02-21T03:54:30.266Z,0.30
2018-02-21T03:55:03.615Z,0.40
2018-02-21T03:55:37.311Z,0.40
2018-02-21T03:56:11.777Z,0.40
2018-02-21T03:56:46.380Z,0.30
2018-02-21T03:57:20.052Z,0.30
2018-02-21T03:57:53.738Z,0.30
2018-02-21T03:58:27.402Z,0.30
2018-02-21T03:59:01.857Z,0.30
2018-02-21T03:59:35.526Z,0.30
2018-02-21T04:00:09.192Z,0.30
2018-02-21T04:00:43.867Z,0.30
2018-02-21T04:01:17.530Z,0.30
2018-02-21T04:01:51.205Z,0.20
2018-02-21T04:02:24.870Z,0.30
2018-02-21T04:02:59.303Z,0.30
2018-02-21T04:03:32.964Z,0.20
2018-02-21T04:04:07.394Z,0.20
2018-02-21T04:04:41.080Z,0.20
2018-02-21T04:05:14.751Z,0.20
2018-02-21T04:05:49.205Z,0.20
2018-02-21T04:06:22.878Z,0.20
2018-02-21T04:06:56.555Z,0.20
2018-02-21T04:07:30.225Z,0.20
2018-02-21T04:08:04.667Z,0.20
2018-02-21T04:08:38.348Z,0.20
2018-02-21T04:09:12.011Z,0.20
2018-02-21T04:09:46.454Z,0.10
2018-02-21T04:10:20.118Z,0.10
2018-02-21T04:10:54.575Z,0.10
2018-02-21T04:11:28.251Z,0.10
2018-02-21T04:12:01.925Z,0.10
2018-02-21T04:12:35.265Z,0.10
2018-02-21T04:13:08.935Z,0.10
2018-02-21T04:13:42.622Z,0.10
2018-02-21T04:14:16.306Z,0.10
2018-02-21T04:14:49.985Z,0.10
2018-02-21T04:15:23.485Z,0.10
2018-02-21T04:15:57.185Z,0.10
2018-02-21T04:16:32.597Z,0.10
2018-02-21T04:17:06.391Z,0.00
2018-02-21T04:17:40.054Z,0.00
2018-02-21T04:18:13.746Z,0.00
2018-02-21T04:18:47.421Z,0.00
2018-02-21T04:19:21.086Z,0.00
2018-02-21T04:19:55.520Z,0.00
2018-02-21T04:20:29.192Z,0.00
2018-02-21T04:21:03.653Z,0.00
2018-02-21T04:21:37.327Z,0.00
2018-02-21T04:22:11.000Z,0.00
2018-02-21T04:22:44.686Z,0.00
2018-02-21T04:23:18.345Z,0.00
2018-02-21T04:23:52.027Z,0.00
2018-02-21T04:24:25.698Z,0.00
2018-02-21T04:24:59.394Z,0.00
2018-02-21T04:25:33.082Z,-0.10
2018-02-21T04:26:06.796Z,0.00
2018-02-21T04:26:40.450Z,0.00
2018-02-21T04:27:14.138Z,0.00
2018-02-21T04:27:47.821Z,0.00
2018-02-21T04:28:21.647Z,0.00
2018-02-21T04:28:55.342Z,-0.10
2018-02-21T04:29:29.010Z,0.00
2018-02-21T04:30:02.702Z,0.00
2018-02-21T04:30:36.395Z,-0.10
2018-02-21T04:31:10.102Z,0.00
2018-02-21T04:31:43.779Z,0.00
2018-02-21T04:32:17.452Z,0.00
2018-02-21T04:32:51.168Z,0.00
2018-02-21T04:33:24.835Z,0.00
2018-02-21T04:33:58.188Z,0.00
2018-02-21T04:34:31.866Z,0.00
2018-02-21T04:35:05.551Z,-0.10
2018-02-21T04:35:39.975Z,0.00
2018-02-21T04:36:13.687Z,-0.10
2018-02-21T04:36:47.367Z,-0.10
2018-02-21T04:37:21.030Z,0.00
2018-02-21T04:37:55.480Z,0.00
2018-02-21T04:38:29.163Z,-0.10
2018-02-21T04:39:02.833Z,-0.10
2018-02-21T04:39:36.507Z,0.00
2018-02-21T04:40:10.766Z,-0.10
2018-02-21T04:40:44.283Z,-0.10
2018-02-21T04:41:18.563Z,0.00
2018-02-21T04:41:52.245Z,-0.10
2018-02-21T04:42:25.919Z,-0.10
2018-02-21T04:42:59.606Z,-0.10
2018-02-21T04:43:33.276Z,-0.10
2018-02-21T04:44:06.950Z,-0.10
2018-02-21T04:44:41.392Z,-0.10
2018-02-21T04:45:15.077Z,-0.10
2018-02-21T04:45:48.772Z,-0.10
2018-02-21T04:46:22.466Z,-0.10
2018-02-21T04:46:56.150Z,-0.10
2018-02-21T04:47:29.809Z,-0.10
2018-02-21T04:48:04.252Z,-0.10
2018-02-21T04:48:37.911Z,-0.10
2018-02-21T04:49:11.599Z,-0.10
2018-02-21T04:49:46.243Z,-0.10
2018-02-21T04:50:20.051Z,-0.10
2018-02-21T04:50:53.718Z,-0.10
2018-02-21T04:51:27.408Z,-0.10
2018-02-21T04:52:01.099Z,-0.10
2018-02-21T04:52:34.607Z,-0.10
2018-02-21T04:53:08.807Z,-0.10
2018-02-21T04:53:42.292Z,-0.20
2018-02-21T04:54:16.699Z,-0.20
2018-02-21T04:54:55.803Z,-0.20
2018-02-21T04:55:50.178Z,-0.20
2018-02-21T04:57:36.438Z,-0.20
2018-02-21T04:58:26.644Z,-0.20
2018-02-21T05:00:11.850Z,-0.20
2018-02-21T05:00:45.335Z,-0.20
2018-02-21T05:01:18.820Z,-0.20
2018-02-21T05:01:52.330Z,-0.20
2018-02-21T05:02:26.582Z,-0.20
2018-02-21T05:03:00.263Z,-0.20
2018-02-21T05:03:33.946Z,-0.20
2018-02-21T05:04:07.615Z,-0.20
2018-02-21T05:04:41.294Z,-0.20
2018-02-21T05:05:15.738Z,-0.30
2018-02-21T05:05:49.442Z,-0.30
2018-02-21T05:06:22.926Z,-0.20
2018-02-21T05:06:56.763Z,-0.20
2018-02-21T05:07:31.228Z,-0.20
2018-02-21T05:08:04.927Z,-0.30
2018-02-21T05:08:38.616Z,-0.30
2018-02-21T05:09:12.294Z,-0.30
2018-02-21T05:09:46.191Z,-0.20
2018-02-21T05:10:19.863Z,-0.20
2018-02-21T05:10:53.526Z,-0.30
2018-02-21T05:11:27.201Z,-0.30
2018-02-21T05:12:01.668Z,-0.30
2018-02-21T05:12:35.338Z,-0.30
2018-02-21T05:13:08.842Z,-0.30
2018-02-21T05:13:42.514Z,-0.30
2018-02-21T05:14:16.175Z,-0.30
2018-02-21T05:14:50.626Z,-0.30
2018-02-21T05:15:24.303Z,-0.40
2018-02-21T05:15:58.014Z,-0.40
2018-02-21T05:16:31.726Z,-0.40
2018-02-21T05:17:05.237Z,-0.40
2018-02-21T05:17:38.923Z,-0.40
2018-02-21T05:18:13.366Z,-0.40
2018-02-21T05:18:47.026Z,-0.40
2018-02-21T05:19:20.701Z,-0.40
2018-02-21T05:19:55.152Z,-0.40
2018-02-21T05:20:28.818Z,-0.40
2018-02-21T05:21:02.497Z,-0.40
2018-02-21T05:21:36.938Z,-0.40
2018-02-21T05:22:10.684Z,-0.40
2018-02-21T05:22:45.136Z,-0.40
2018-02-21T05:23:18.814Z,-0.40
2018-02-21T05:23:52.479Z,-0.40
2018-02-21T05:24:26.173Z,-0.40
2018-02-21T05:25:00.611Z,-0.40
2018-02-21T05:25:34.290Z,-0.50
2018-02-21T05:26:07.962Z,-0.50
2018-02-21T05:26:41.634Z,-0.40
2018-02-21T05:27:16.087Z,-0.50
2018-02-21T05:27:49.762Z,-0.50
2018-02-21T05:28:23.450Z,-0.50
2018-02-21T05:28:57.126Z,-0.50
2018-02-21T05:29:31.559Z,-0.50
2018-02-21T05:30:04.927Z,-0.50
2018-02-21T05:30:38.592Z,-0.50
2018-02-21T05:31:12.261Z,-0.50
2018-02-21T05:31:45.929Z,-0.50
2018-02-21T05:32:19.630Z,-0.60
2018-02-21T05:32:53.124Z,-0.60
2018-02-21T05:33:26.802Z,-0.60
2018-02-21T05:34:00.489Z,-0.60
2018-02-21T05:34:34.156Z,-0.60
2018-02-21T05:35:07.910Z,-0.60
2018-02-21T05:35:42.172Z,-0.60
2018-02-21T05:36:15.674Z,-0.60
2018-02-21T05:36:49.338Z,-0.60
2018-02-21T05:37:23.050Z,-0.60
2018-02-21T05:37:56.729Z,-0.60
2018-02-21T05:38:30.422Z,-0.60
2018-02-21T05:39:03.439Z,-0.60
2018-02-21T05:39:37.870Z,-0.70
2018-02-21T05:40:11.567Z,-0.70
2018-02-21T05:40:45.278Z,-0.70
2018-02-21T05:41:18.954Z,-0.70
2018-02-21T05:41:52.639Z,-0.70
2018-02-21T05:42:26.331Z,-0.60
2018-02-21T05:43:00.009Z,-0.60
2018-02-21T05:43:33.673Z,-0.60
2018-02-21T05:44:08.127Z,-0.60
2018-02-21T05:44:41.803Z,-0.60
2018-02-21T05:45:15.467Z,-0.60
2018-02-21T05:45:50.103Z,-0.60
2018-02-21T05:46:23.788Z,-0.60
2018-02-21T05:46:57.483Z,-0.60
2018-02-21T05:47:31.198Z,-0.50
2018-02-21T05:48:04.878Z,-0.50
2018-02-21T05:48:38.557Z,-0.50
2018-02-21T05:49:12.259Z,-0.50
2018-02-21T05:49:45.926Z,-0.50
2018-02-21T05:50:19.606Z,-0.50
2018-02-21T05:50:53.286Z,-0.50
2018-02-21T05:51:27.799Z,-0.50
2018-02-21T05:52:02.233Z,-0.50
2018-02-21T05:52:35.750Z,-0.50
2018-02-21T05:53:09.440Z,-0.50
2018-02-21T05:53:43.290Z,-0.50
2018-02-21T05:54:16.986Z,-0.50
2018-02-21T05:54:50.656Z,-0.50
2018-02-21T05:55:24.324Z,-0.50
2018-02-21T05:55:58.772Z,-0.50
2018-02-21T05:56:32.450Z,-0.50
2018-02-21T05:57:06.123Z,-0.50
2018-02-21T05:57:40.594Z,-0.50
2018-02-21T05:58:14.266Z,-0.50
2018-02-21T05:58:47.962Z,-0.50
2018-02-21T05:59:21.649Z,-0.50
2018-02-21T05:59:55.314Z,-0.50
2018-02-21T06:00:28.986Z,-0.50
2018-02-21T06:01:02.687Z,-0.50
2018-02-21T06:01:36.378Z,-0.50
2018-02-21T06:02:10.070Z,-0.50
2018-02-21T06:02:43.781Z,-0.50
2018-02-21T06:03:17.458Z,-0.40
2018-02-21T06:03:51.157Z,-0.50
2018-02-21T06:04:24.835Z,-0.50
2018-02-21T06:04:58.507Z,-0.50
2018-02-21T06:05:32.948Z,-0.50
2018-02-21T06:06:06.614Z,-0.50
2018-02-21T06:06:40.308Z,-0.40
2018-02-21T06:07:13.999Z,-0.50
2018-02-21T06:07:47.697Z,-0.50
2018-02-21T06:08:21.375Z,-0.50
2018-02-21T06:08:55.062Z,-0.50
2018-02-21T06:09:28.726Z,-0.50
2018-02-21T06:10:03.162Z,-0.50
2018-02-21T06:10:36.866Z,-0.50
2018-02-21T06:11:10.545Z,-0.50
2018-02-21T06:11:44.223Z,-0.50
2018-02-21T06:12:17.910Z,-0.60
2018-02-21T06:12:51.610Z,-0.60
2018-02-21T06:13:25.279Z,-0.60
2018-02-21T06:13:59.718Z,-0.60
2018-02-21T06:14:33.393Z,-0.60
2018-02-21T06:15:07.068Z,-0.60
2018-02-21T06:15:41.502Z,-0.60
2018-02-21T06:16:15.179Z,-0.60
2018-02-21T06:16:48.867Z,-0.70
2018-02-21T06:17:22.562Z,-0.60
2018-02-21T06:17:56.250Z,-0.60
2018-02-21T06:18:29.976Z,-0.70
2018-02-21T06:19:03.787Z,-0.60
2018-02-21T06:19:37.458Z,-0.70
2018-02-21T06:20:11.162Z,-0.60
2018-02-21T06:20:44.840Z,-0.70
2018-02-21T06:21:18.518Z,-0.70
2018-02-21T06:21:52.183Z,-0.70
2018-02-21T06:22:25.860Z,-0.70
2018-02-21T06:23:00.314Z,-0.70
2018-02-21T06:23:33.991Z,-0.70
2018-02-21T06:24:07.677Z,-0.70
2018-02-21T06:24:41.346Z,-0.70
2018-02-21T06:25:15.013Z,-0.70
2018-02-21T06:25:49.459Z,-0.70
2018-02-21T06:26:23.150Z,-0.70
2018-02-21T06:26:56.842Z,-0.70
2018-02-21T06:27:30.572Z,-0.70
2018-02-21T06:28:04.275Z,-0.60
2018-02-21T06:28:37.943Z,-0.70
2018-02-21T06:29:11.634Z,-0.70
2018-02-21T06:29:45.322Z,-0.70
2018-02-21T06:30:19.011Z,-0.60
2018-02-21T06:30:52.686Z,-0.60
2018-02-21T06:31:26.354Z,-0.60
2018-02-21T06:32:00.043Z,-0.60
2018-02-21T06:32:33.719Z,-0.60
2018-02-21T06:33:07.946Z,-0.60
2018-02-21T06:33:41.626Z,-0.60
2018-02-21T06:34:15.309Z,-0.70
2018-02-21T06:34:48.984Z,-0.60
2018-02-21T06:35:23.424Z,-0.60
2018-02-21T06:35:57.147Z,-0.60
2018-02-21T06:36:30.976Z,-0.60
2018-02-21T06:37:05.448Z,-0.60
2018-02-21T06:37:39.129Z,-0.60
2018-02-21T06:38:12.828Z,-0.60
2018-02-21T06:38:46.489Z,-0.60
2018-02-21T06:39:20.159Z,-0.60
2018-02-21T06:39:53.851Z,-0.60
2018-02-21T06:40:27.523Z,-0.60
2018-02-21T06:41:01.963Z,-0.60
2018-02-21T06:41:35.621Z,-0.60
2018-02-21T06:42:10.063Z,-0.60
2018-02-21T06:42:43.732Z,-0.60
2018-02-21T06:43:17.430Z,-0.60
2018-02-21T06:43:51.124Z,-0.50
2018-02-21T06:44:25.007Z,-0.50
2018-02-21T06:44:58.683Z,-0.50
2018-02-21T06:45:33.125Z,-0.50
2018-02-21T06:46:06.812Z,-0.50
2018-02-21T06:46:40.756Z,-0.50
2018-02-21T06:47:14.431Z,-0.50
2018-02-21T06:47:48.114Z,-0.50
2018-02-21T06:48:21.814Z,-0.50
2018-02-21T06:48:55.482Z,-0.50
2018-02-21T06:49:29.163Z,-0.50
2018-02-21T06:50:02.830Z,-0.50
2018-02-21T06:50:36.509Z,-0.50
2018-02-21T06:51:10.187Z,-0.40
2018-02-21T06:51:44.640Z,-0.40
2018-02-21T06:52:18.315Z,-0.40
2018-02-21T06:52:52.191Z,-0.40
2018-02-21T06:53:25.911Z,-0.40
2018-02-21T06:53:59.575Z,-0.40
2018-02-21T06:54:33.259Z,-0.40
2018-02-21T06:55:06.934Z,-0.40
2018-02-21T06:55:41.363Z,-0.40
2018-02-21T06:56:15.043Z,-0.40
2018-02-21T06:56:49.492Z,-0.30
2018-02-21T06:57:23.174Z,-0.30
2018-02-21T06:57:56.834Z,-0.30
2018-02-21T06:58:30.554Z,-0.30
2018-02-21T06:59:04.256Z,-0.30
2018-02-21T06:59:37.922Z,-0.30
2018-02-21T07:00:11.626Z,-0.30
2018-02-21T07:00:46.234Z,-0.30
2018-02-21T07:01:20.845Z,-0.30
2018-02-21T07:01:54.520Z,-0.30
2018-02-21T07:02:35.213Z,-0.20
2018-02-21T07:03:08.890Z,-0.20
2018-02-21T07:03:42.597Z,-0.20
2018-02-21T07:04:16.279Z,-0.20
2018-02-21T07:04:50.150Z,-0.20
2018-02-21T07:05:23.819Z,-0.20
2018-02-21T07:05:57.497Z,-0.10
2018-02-21T07:06:31.952Z,-0.10
2018-02-21T07:07:05.705Z,-0.10
2018-02-21T07:07:39.374Z,-0.10
2018-02-21T07:08:13.819Z,0.00
2018-02-21T07:08:47.531Z,0.00
2018-02-21T07:09:21.260Z,0.00
2018-02-21T07:09:55.714Z,0.00
2018-02-21T07:10:29.402Z,0.00
2018-02-21T07:11:03.067Z,0.10
2018-02-21T07:11:36.753Z,0.10
2018-02-21T07:12:10.423Z,0.10
2018-02-21T07:12:44.123Z,0.10
2018-02-21T07:13:18.554Z,0.20
2018-02-21T07:13:52.269Z,0.20
2018-02-21T07:14:25.935Z,0.20
2018-02-21T07:14:59.618Z,0.20
2018-02-21T07:15:33.317Z,0.20
2018-02-21T07:16:07.933Z,0.30
2018-02-21T07:16:41.605Z,0.30
2018-02-21T07:17:15.277Z,0.30
2018-02-21T07:17:49.726Z,0.30
2018-02-21T07:18:23.391Z,0.30
2018-02-21T07:18:57.376Z,0.40
2018-02-21T07:19:31.820Z,0.40
2018-02-21T07:20:04.830Z,0.40
2018-02-21T07:20:38.553Z,0.40
2018-02-21T07:21:12.371Z,0.40
2018-02-21T07:21:46.043Z,0.40
2018-02-21T07:22:19.718Z,0.40
2018-02-21T07:22:54.155Z,0.40
2018-02-21T07:23:27.826Z,0.40
2018-02-21T07:24:01.544Z,0.50
2018-02-21T07:24:35.234Z,0.50
2018-02-21T07:25:08.910Z,0.50
2018-02-21T07:25:42.590Z,0.50
2018-02-21T07:26:16.257Z,0.50
2018-02-21T07:26:50.699Z,0.50
2018-02-21T07:27:24.368Z,0.50
2018-02-21T07:27:58.835Z,0.50
2018-02-21T07:28:32.508Z,0.50
2018-02-21T07:29:06.218Z,0.50